Time;durP1;ratioP1;P1;durP2;ratioP2;P2;SDS_P1;SDS_P2;PMS_P1;PMS_P2;Temp;Humidity;BMP_temperature;BMP_pressure;BME280_temperature;BME280_humidity;BME280_pressure;Samples;Min_cycle;Max_cycle;Signal;HPM_P1;HPM_P2
2022/07/16 00:01:54;;;;;;;4.15;1.23;;;;;;;28.04;29.63;101891.38;5071889;28;20093;-43
2022/07/16 00:04:23;;;;;;;2.00;0.95;;;;;;;28.08;29.76;101892.28;5075937;28;20370;-43
2022/07/16 00:06:55;;;;;;;4.90;1.63;;;;;;;28.09;29.56;101885.28;5074315;28;20107;-45
2022/07/16 00:09:26;;;;;;;4.28;1.63;;;;;;;28.04;29.59;101890.50;5075462;28;20465;-44
2022/07/16 00:11:58;;;;;;;2.40;1.10;;;;;;;28.07;29.73;101889.63;5075490;28;20391;-48
2022/07/16 00:14:28;;;;;;;5.18;1.85;;;;;;;28.00;29.96;101878.16;5075326;28;20075;-47
2022/07/16 00:16:58;;;;;;;5.82;1.65;;;;;;;27.94;30.07;101873.69;5074715;28;20021;-43
2022/07/16 00:19:27;;;;;;;3.58;1.10;;;;;;;27.97;30.19;101878.97;5075226;28;20025;-45
2022/07/16 00:21:56;;;;;;;3.70;1.60;;;;;;;27.99;29.94;101879.00;5075464;28;20438;-46
2022/07/16 00:24:26;;;;;;;3.53;1.30;;;;;;;27.94;29.87;101868.41;5075220;28;20037;-45
2022/07/16 00:26:55;;;;;;;4.10;1.38;;;;;;;27.94;29.97;101865.78;5075545;28;20466;-43
2022/07/16 00:29:24;;;;;;;8.57;1.48;;;;;;;27.97;29.95;101863.16;5075509;28;20107;-43
2022/07/16 00:31:54;;;;;;;5.18;1.48;;;;;;;27.96;30.01;101866.69;5075086;28;20381;-43
2022/07/16 00:34:23;;;;;;;3.72;1.33;;;;;;;27.90;30.11;101864.84;5073717;28;20370;-44
2022/07/16 00:36:52;;;;;;;2.05;1.00;;;;;;;27.77;30.25;101856.81;5073863;28;20024;-44
2022/07/16 00:39:22;;;;;;;4.65;1.55;;;;;;;27.80;30.12;101856.84;5075227;28;20031;-43
2022/07/16 00:41:51;;;;;;;4.53;1.63;;;;;;;27.80;29.94;101855.09;5075044;28;20059;-50
2022/07/16 00:44:19;;;;;;;2.20;1.05;;;;;;;27.79;30.05;101852.44;5074620;28;20029;-54
2022/07/16 00:46:49;;;;;;;2.53;1.10;;;;;;;27.83;30.05;101852.47;5074448;28;20182;-48
2022/07/16 00:49:19;;;;;;;5.10;1.10;;;;;;;27.72;30.17;101840.91;5075124;28;20027;-43
2022/07/16 00:51:51;;;;;;;4.97;1.63;;;;;;;27.90;30.09;101861.34;5073384;28;20398;-45
2022/07/16 00:54:21;;;;;;;5.25;1.38;;;;;;;27.92;30.09;101858.72;5072997;28;20024;-43
2022/07/16 00:56:49;;;;;;;3.45;1.60;;;;;;;27.79;30.68;101863.00;5074556;28;20466;-51
2022/07/16 00:59:18;;;;;;;4.50;1.38;;;;;;;27.81;30.21;101858.59;5074755;28;20390;-52
2022/07/16 01:01:47;;;;;;;4.15;1.30;;;;;;;27.83;30.52;101859.50;5074450;28;20039;-49
2022/07/16 01:04:18;;;;;;;2.10;0.98;;;;;;;27.77;30.17;101854.16;5074672;28;20021;-51
2022/07/16 01:06:47;;;;;;;3.65;1.40;;;;;;;27.61;30.30;101856.63;5056790;28;20413;-52
2022/07/16 01:09:16;;;;;;;4.50;1.30;;;;;;;27.70;30.70;101867.28;5073265;28;20393;-45
2022/07/16 01:11:46;;;;;;;4.15;1.13;;;;;;;27.77;30.35;101864.72;5074595;28;20473;-43
2022/07/16 01:14:15;;;;;;;2.30;1.20;;;;;;;27.80;30.36;101870.91;5074342;28;20115;-43
2022/07/16 01:16:44;;;;;;;3.70;1.50;;;;;;;27.80;30.34;101864.75;5074273;28;20024;-43
2022/07/16 01:19:15;;;;;;;2.38;0.95;;;;;;;27.77;30.27;101859.44;5056764;28;20060;-45
2022/07/16 01:21:45;;;;;;;4.55;1.40;;;;;;;27.74;30.31;101860.28;5072766;28;20053;-44
2022/07/16 01:24:14;;;;;;;3.38;1.13;;;;;;;27.72;30.23;101865.53;5074180;28;20082;-43
2022/07/16 01:26:42;;;;;;;3.10;1.48;;;;;;;27.68;30.44;101861.09;5074174;28;20039;-43
2022/07/16 01:29:11;;;;;;;4.85;1.27;;;;;;;27.66;30.41;101860.19;5073440;28;20033;-43
2022/07/16 01:31:39;;;;;;;2.90;1.10;;;;;;;27.74;30.25;101861.19;5073829;28;20060;-43
2022/07/16 01:34:28;;;;;;;3.30;1.33;;;;;;;27.60;30.17;101853.09;5056402;28;20053;-48
2022/07/16 01:36:58;;;;;;;4.50;1.63;;;;;;;27.63;30.37;101862.81;5058614;28;20029;-45
2022/07/16 01:39:28;;;;;;;2.25;0.98;;;;;;;27.57;30.11;101849.56;5073762;28;20470;-47
2022/07/16 01:41:58;;;;;;;3.92;1.60;;;;;;;27.51;30.37;101853.00;5073675;28;20111;-48
2022/07/16 01:44:29;;;;;;;5.80;1.23;;;;;;;27.58;30.16;101853.97;5074005;28;20063;-45
2022/07/16 01:46:58;;;;;;;5.68;1.55;;;;;;;27.56;30.16;101855.69;5074055;28;20024;-43
2022/07/16 01:49:30;;;;;;;3.92;1.48;;;;;;;27.60;30.25;101853.09;5074410;28;20060;-43
2022/07/16 01:52:03;;;;;;;4.60;1.05;;;;;;;27.48;30.24;101837.16;5073562;28;20381;-43
2022/07/16 01:54:32;;;;;;;4.38;1.40;;;;;;;27.46;30.26;101859.97;5073790;28;20058;-43
2022/07/16 01:57:01;;;;;;;3.65;1.20;;;;;;;27.33;30.15;101834.28;5073820;28;20073;-43
2022/07/16 01:59:29;;;;;;;3.13;0.85;;;;;;;27.43;30.50;101855.50;5073852;28;20060;-45
2022/07/16 02:01:58;;;;;;;5.63;1.42;;;;;;;27.42;30.46;101861.66;5073322;28;20466;-44
2022/07/16 02:04:26;;;;;;;4.22;1.40;;;;;;;27.48;30.24;101859.97;5072139;28;20492;-48
2022/07/16 02:06:55;;;;;;;4.78;1.25;;;;;;;27.47;30.19;101850.31;5073496;28;20500;-49
2022/07/16 02:09:24;;;;;;;3.47;1.10;;;;;;;27.53;30.23;101850.38;5072015;28;20041;-43
2022/07/16 02:11:53;;;;;;;2.17;1.00;;;;;;;27.51;30.38;101860.00;5073568;28;20033;-52
2022/07/16 02:14:21;;;;;;;4.75;1.45;;;;;;;27.42;30.29;101842.31;5072082;28;20024;-43
2022/07/16 02:16:50;;;;;;;3.58;1.15;;;;;;;27.39;30.47;101848.44;5072948;28;20036;-45
2022/07/16 02:19:19;;;;;;;2.60;1.10;;;;;;;27.47;30.21;101847.69;5072939;28;20086;-43
2022/07/16 02:21:47;;;;;;;3.63;1.40;;;;;;;27.48;30.19;101852.97;5073129;28;20474;-44
2022/07/16 02:24:16;;;;;;;4.13;1.20;;;;;;;27.55;29.98;101860.06;5071654;28;20056;-45
2022/07/16 02:26:45;;;;;;;3.88;1.23;;;;;;;27.37;30.00;101839.63;5072237;28;20488;-43
2022/07/16 02:29:13;;;;;;;2.20;1.00;;;;;;;27.38;30.03;101851.94;5073891;28;20028;-50
2022/07/16 02:31:42;;;;;;;2.08;1.00;;;;;;;27.40;30.20;101849.31;5055389;28;20135;-43
2022/07/16 02:34:10;;;;;;;3.10;1.23;;;;;;;27.39;30.25;101839.63;5073161;28;20067;-43
2022/07/16 02:36:39;;;;;;;6.88;1.20;;;;;;;27.34;30.29;101839.56;5073104;28;20029;-43
2022/07/16 02:39:08;;;;;;;4.55;1.20;;;;;;;27.35;30.24;101840.47;5073020;28;20025;-43
2022/07/16 02:41:38;;;;;;;2.75;1.20;;;;;;;27.34;30.09;101833.44;5073217;28;20386;-43
2022/07/16 02:44:06;;;;;;;5.35;1.08;;;;;;;27.35;29.91;101836.06;5077156;28;20028;-48
2022/07/16 02:46:35;;;;;;;6.40;1.27;;;;;;;27.34;29.92;101828.16;5077289;28;20078;-45
2022/07/16 02:49:02;;;;;;;2.13;1.00;;;;;;;27.31;29.72;101826.34;5076231;28;20024;-57
2022/07/16 02:51:34;;;;;;;1.85;0.90;;;;;;;27.35;29.78;101814.13;5077054;28;20436;-48
2022/07/16 02:54:04;;;;;;;5.88;1.10;;;;;;;27.38;29.35;101833.47;5077058;28;20048;-47
2022/07/16 02:56:33;;;;;;;3.35;1.30;;;;;;;27.31;29.62;101807.91;5077282;28;20055;-46
2022/07/16 02:59:02;;;;;;;2.05;0.98;;;;;;;27.25;29.83;101821.91;5076893;28;20032;-43
2022/07/16 03:01:30;;;;;;;3.65;0.98;;;;;;;27.22;29.55;101827.13;5075372;28;20109;-57
2022/07/16 03:03:59;;;;;;;6.45;1.45;;;;;;;27.11;29.68;101821.75;5075648;28;20029;-47
2022/07/16 03:06:27;;;;;;;1.75;1.05;;;;;;;27.17;29.52;101831.47;5076474;28;20111;-46
2022/07/16 03:08:56;;;;;;;5.20;1.35;;;;;;;27.11;29.56;101821.75;5075165;28;20029;-45
2022/07/16 03:11:24;;;;;;;2.80;1.00;;;;;;;27.10;29.75;101811.16;5076913;28;20028;-43
2022/07/16 03:13:53;;;;;;;2.40;1.00;;;;;;;27.14;29.51;101820.88;5058906;28;20043;-43
2022/07/16 03:16:21;;;;;;;2.92;1.00;;;;;;;27.14;29.60;101803.31;5076522;28;20025;-43
2022/07/16 03:18:50;;;;;;;4.50;1.52;;;;;;;27.16;29.42;101806.00;5076741;28;20055;-54
2022/07/16 03:21:19;;;;;;;3.08;1.10;;;;;;;27.08;29.69;101798.00;5076135;28;20029;-43
2022/07/16 03:23:47;;;;;;;3.17;1.10;;;;;;;27.05;29.38;101791.81;5076331;28;20390;-52
2022/07/16 03:26:16;;;;;;;4.25;1.00;;;;;;;27.05;29.39;101790.03;5076269;28;20123;-43
2022/07/16 03:28:45;;;;;;;3.70;1.00;;;;;;;27.05;29.28;101794.44;5074607;28;20031;-56
2022/07/16 03:31:13;;;;;;;3.72;1.10;;;;;;;27.04;29.29;101804.06;5076254;28;20028;-44
2022/07/16 03:33:41;;;;;;;3.15;1.00;;;;;;;27.07;29.27;101806.75;5075096;28;20032;-51
2022/07/16 03:36:10;;;;;;;2.08;1.02;;;;;;;27.06;29.14;101811.97;5076222;28;20029;-46
2022/07/16 03:39:19;;;;;;;5.70;1.02;;;;;;;26.96;29.35;101817.13;5076149;28;20481;-43
2022/07/16 03:41:26;;;;;;;6.07;1.58;;;;;;;27.04;29.12;101813.75;5073059;28;20032;-46
2022/07/16 03:43:55;;;;;;;5.78;0.93;;;;;;;27.03;29.31;101819.88;5076282;28;20021;-48
2022/07/16 03:46:23;;;;;;;2.92;1.17;;;;;;;26.93;29.16;101801.28;5076317;28;20469;-43
2022/07/16 03:48:55;;;;;;;5.30;1.40;;;;;;;26.98;29.20;101804.88;5077207;28;20033;-43
2022/07/16 03:51:23;;;;;;;2.63;1.27;;;;;;;27.01;28.72;101814.56;5075995;28;20107;-43
2022/07/16 03:53:52;;;;;;;4.00;1.58;;;;;;;26.93;28.97;101816.22;5074218;28;20119;-56
2022/07/16 03:56:20;;;;;;;4.05;1.23;;;;;;;26.97;28.91;101818.03;5075777;28;20039;-46
2022/07/16 03:58:49;;;;;;;3.60;1.20;;;;;;;26.90;28.67;101831.97;5076799;28;20039;-44
2022/07/16 04:01:19;;;;;;;2.90;1.15;;;;;;;26.85;28.77;101829.28;5075890;28;20025;-50
2022/07/16 04:03:47;;;;;;;3.90;1.33;;;;;;;26.91;28.80;101831.97;5075815;28;20503;-43
2022/07/16 04:06:16;;;;;;;2.95;1.02;;;;;;;26.92;28.56;101825.84;5075905;28;20123;-47
2022/07/16 04:08:45;;;;;;;2.22;1.17;;;;;;;26.95;28.82;101825.03;5076363;28;20024;-49
2022/07/16 04:11:12;;;;;;;3.72;1.10;;;;;;;26.87;28.56;101831.91;5075944;28;20017;-47
2022/07/16 04:13:42;;;;;;;3.35;1.40;;;;;;;26.82;28.53;101831.88;5075646;28;20063;-48
2022/07/16 04:16:11;;;;;;;2.85;1.20;;;;;;;26.82;28.58;101829.22;5075806;28;20036;-47
2022/07/16 04:18:40;;;;;;;1.33;1.08;;;;;;;26.80;28.47;101829.22;5075924;28;20024;-43
2022/07/16 04:21:09;;;;;;;3.33;1.30;;;;;;;26.72;28.27;101836.06;5075798;28;20087;-43
2022/07/16 04:23:37;;;;;;;2.17;0.82;;;;;;;26.72;28.42;101836.06;5075108;28;20029;-52
2022/07/16 04:26:06;;;;;;;2.03;1.05;;;;;;;26.80;28.59;101836.22;5073581;28;20397;-43
2022/07/16 04:28:34;;;;;;;2.58;1.00;;;;;;;26.82;28.42;101845.03;5075392;28;20020;-50
2022/07/16 04:31:03;;;;;;;1.73;0.80;;;;;;;26.84;28.47;101853.84;5075436;28;20024;-44
2022/07/16 04:33:31;;;;;;;1.92;1.00;;;;;;;26.77;28.34;101847.56;5073661;28;20551;-44
2022/07/16 04:36:02;;;;;;;2.95;1.23;;;;;;;26.78;28.34;101858.97;5075322;28;20046;-43
2022/07/16 04:38:31;;;;;;;2.45;1.00;;;;;;;26.73;28.47;101848.38;5074017;28;20535;-51
2022/07/16 04:40:59;;;;;;;2.05;1.08;;;;;;;26.67;28.32;101850.88;5075909;28;20420;-42
2022/07/16 04:43:28;;;;;;;2.85;1.10;;;;;;;26.73;28.20;101852.72;5074991;28;20232;-43
2022/07/16 04:45:56;;;;;;;2.83;0.98;;;;;;;26.65;28.13;101853.50;5074665;28;20397;-48
2022/07/16 04:48:25;;;;;;;1.58;1.00;;;;;;;26.71;28.37;101852.72;5074617;28;20031;-48
2022/07/16 04:50:53;;;;;;;4.03;1.23;;;;;;;26.64;28.38;101859.63;5075180;28;20418;-45
2022/07/16 04:53:22;;;;;;;2.67;0.90;;;;;;;26.61;28.34;101862.22;5075156;28;20029;-43
2022/07/16 04:55:51;;;;;;;2.40;1.05;;;;;;;26.61;28.58;101866.59;5074862;28;20032;-43
2022/07/16 04:58:19;;;;;;;1.48;0.90;;;;;;;26.58;28.55;101866.56;5075280;28;20029;-45
2022/07/16 05:00:48;;;;;;;4.07;1.10;;;;;;;26.50;28.62;101864.66;5074450;28;20021;-47
2022/07/16 05:03:16;;;;;;;2.92;1.08;;;;;;;26.59;28.49;101873.59;5074636;28;20031;-48
2022/07/16 05:05:45;;;;;;;3.17;1.02;;;;;;;26.61;28.24;101877.13;5073666;28;20036;-53
2022/07/16 05:08:13;;;;;;;3.25;1.00;;;;;;;26.57;28.50;101872.69;5074493;28;20032;-44
2022/07/16 05:10:45;;;;;;;4.43;0.90;;;;;;;26.57;28.51;101870.03;5075062;28;20024;-48
2022/07/16 05:13:14;;;;;;;3.25;1.08;;;;;;;26.64;28.23;101874.56;5074725;28;20028;-45
2022/07/16 05:15:46;;;;;;;1.58;0.90;;;;;;;26.65;28.32;101868.41;5073956;28;20025;-44
2022/07/16 05:18:16;;;;;;;3.33;1.00;;;;;;;26.79;28.19;101871.25;5074368;28;20039;-43
2022/07/16 05:20:46;;;;;;;2.55;1.10;;;;;;;26.67;28.22;101867.59;5073028;28;20024;-50
2022/07/16 05:23:15;;;;;;;3.38;0.77;;;;;;;26.66;28.51;101872.81;5074313;28;20531;-43
2022/07/16 05:25:43;;;;;;;2.88;1.70;;;;;;;26.66;28.35;101865.81;5074167;28;20055;-43
2022/07/16 05:28:14;;;;;;;4.70;1.20;;;;;;;26.69;28.38;101878.13;5073066;28;20036;-43
2022/07/16 05:30:42;;;;;;;2.67;1.25;;;;;;;26.67;28.38;101878.13;5074424;28;20470;-44
2022/07/16 05:33:11;;;;;;;2.13;0.85;;;;;;;26.78;28.35;101880.03;5074696;28;20033;-44
2022/07/16 05:35:39;;;;;;;2.25;0.73;;;;;;;26.67;28.58;101866.69;5073981;28;20429;-51
2022/07/16 05:38:08;;;;;;;4.25;1.10;;;;;;;26.69;28.57;101865.88;5074253;28;20028;-44
2022/07/16 05:40:37;;;;;;;2.03;1.00;;;;;;;26.72;28.65;101872.91;5074007;28;20039;-50
2022/07/16 05:43:05;;;;;;;2.15;1.17;;;;;;;26.79;28.55;101874.84;5073416;28;20042;-47
2022/07/16 05:45:33;;;;;;;3.13;1.25;;;;;;;26.81;28.70;101870.44;5073770;28;20028;-46
2022/07/16 05:48:02;;;;;;;3.47;1.02;;;;;;;26.78;28.94;101869.50;5072122;28;20028;-50
2022/07/16 05:50:30;;;;;;;2.63;0.95;;;;;;;26.78;28.84;101874.75;5073589;28;20021;-43
2022/07/16 05:52:59;;;;;;;5.72;0.98;;;;;;;26.83;28.55;101867.84;5073687;28;20068;-51
2022/07/16 05:55:27;;;;;;;2.40;1.17;;;;;;;26.87;28.84;101874.94;5073737;28;20051;-44
2022/07/16 05:57:55;;;;;;;3.35;1.35;;;;;;;26.87;28.69;101868.78;5073413;28;20024;-46
2022/07/16 06:00:24;;;;;;;3.15;1.70;;;;;;;26.84;28.77;101862.59;5073679;28;20024;-43
2022/07/16 06:02:53;;;;;;;3.13;1.30;;;;;;;26.87;28.96;101866.16;5073180;28;20024;-43
2022/07/16 06:05:22;;;;;;;5.10;1.13;;;;;;;26.91;28.75;101875.88;5073326;28;20111;-43
2022/07/16 06:07:51;;;;;;;4.15;1.38;;;;;;;26.86;29.07;101867.91;5073415;28;20032;-43
2022/07/16 06:10:20;;;;;;;3.13;1.20;;;;;;;26.90;29.11;101864.44;5073756;28;20017;-43
2022/07/16 06:12:49;;;;;;;2.88;1.30;;;;;;;27.08;28.92;101877.00;5073419;28;20024;-42
2022/07/16 06:15:17;;;;;;;3.50;1.15;;;;;;;26.99;28.73;101856.69;5073290;28;20029;-53
2022/07/16 06:17:46;;;;;;;2.03;1.10;;;;;;;27.03;28.75;101860.25;5073396;28;20027;-43
2022/07/16 06:20:14;;;;;;;5.32;1.00;;;;;;;27.10;28.78;101861.22;5072711;28;20060;-43
2022/07/16 06:22:43;;;;;;;3.50;1.20;;;;;;;27.06;29.00;101857.66;5071837;28;20028;-50
2022/07/16 06:25:12;;;;;;;2.90;0.82;;;;;;;27.07;28.98;101842.72;5073030;28;20105;-43
2022/07/16 06:27:44;;;;;;;2.45;0.95;;;;;;;27.18;28.81;101864.84;5073445;28;20132;-44
2022/07/16 06:30:14;;;;;;;1.35;0.70;;;;;;;27.19;28.96;101868.34;5073388;28;20025;-46
2022/07/16 06:32:43;;;;;;;1.98;0.70;;;;;;;27.22;28.80;101865.75;5073477;28;20040;-43
2022/07/16 06:35:12;;;;;;;5.38;1.88;;;;;;;27.31;29.00;101868.50;5073241;28;20025;-48
2022/07/16 06:37:41;;;;;;;1.83;1.00;;;;;;;27.47;28.98;101871.41;5071791;28;20021;-43
2022/07/16 06:40:10;;;;;;;1.98;0.90;;;;;;;27.46;28.87;101859.09;5073486;28;20423;-43
2022/07/16 06:42:38;;;;;;;1.77;0.88;;;;;;;27.54;28.75;101875.88;5071707;28;20025;-43
2022/07/16 06:45:07;;;;;;;3.58;1.25;;;;;;;27.60;28.73;101873.31;5072936;28;20032;-43
2022/07/16 06:47:37;;;;;;;4.88;0.95;;;;;;;27.70;28.58;101880.44;5072864;28;20073;-46
2022/07/16 06:50:05;;;;;;;3.95;0.80;;;;;;;27.63;28.59;101864.56;5072981;28;20031;-44
2022/07/16 06:52:34;;;;;;;3.15;1.00;;;;;;;27.60;28.54;101868.03;5073194;28;20041;-52
2022/07/16 06:55:03;;;;;;;1.45;0.73;;;;;;;27.66;28.70;101881.28;5073072;28;20040;-43
2022/07/16 06:57:31;;;;;;;2.38;0.80;;;;;;;27.54;28.91;101865.31;5072809;28;20036;-47
2022/07/16 07:00:00;;;;;;;3.10;0.93;;;;;;;27.58;28.93;101872.41;5071664;28;20025;-43
2022/07/16 07:02:28;;;;;;;4.07;1.10;;;;;;;27.59;29.26;101866.28;5072638;28;20024;-44
2022/07/16 07:04:57;;;;;;;2.65;1.00;;;;;;;27.63;29.05;101873.34;5072685;28;20401;-52
2022/07/16 07:07:26;;;;;;;5.18;1.05;;;;;;;27.61;28.98;101872.44;5073002;28;20039;-48
2022/07/16 07:09:55;;;;;;;2.13;0.90;;;;;;;27.67;29.09;101869.00;5072930;28;20031;-43
2022/07/16 07:12:23;;;;;;;6.50;1.15;;;;;;;27.60;29.06;101862.78;5072887;28;20084;-43
2022/07/16 07:14:52;;;;;;;6.55;1.05;;;;;;;27.62;28.93;101853.13;5072916;28;20063;-43
2022/07/16 07:17:21;;;;;;;2.33;1.13;;;;;;;27.69;29.03;101881.31;5071795;28;20029;-45
2022/07/16 07:19:49;;;;;;;2.72;0.90;;;;;;;27.75;29.16;101878.75;5072954;28;20100;-43
2022/07/16 07:22:17;;;;;;;5.43;1.10;;;;;;;27.72;29.11;101876.09;5072844;28;20043;-43
2022/07/16 07:24:46;;;;;;;5.05;1.00;;;;;;;27.78;28.99;101870.00;5072360;28;20049;-43
2022/07/16 07:27:13;;;;;;;4.50;0.90;;;;;;;27.87;28.93;101879.75;5071518;28;20146;-43
2022/07/16 07:29:42;;;;;;;5.32;0.90;;;;;;;27.77;29.14;101872.63;5075131;28;20100;-47
2022/07/16 07:32:11;;;;;;;2.30;1.02;;;;;;;27.83;29.05;101870.03;5076625;28;20032;-44
2022/07/16 07:34:39;;;;;;;3.58;1.10;;;;;;;27.83;29.02;101864.75;5076294;28;20025;-43
2022/07/16 07:37:08;;;;;;;2.00;0.80;;;;;;;27.79;29.16;101869.13;5076371;28;20103;-42
2022/07/16 07:39:37;;;;;;;3.63;1.17;;;;;;;27.94;28.97;101878.06;5076459;28;20394;-42
2022/07/16 07:42:05;;;;;;;6.38;1.75;;;;;;;27.99;29.00;101879.00;5076066;28;20017;-47
2022/07/16 07:44:34;;;;;;;6.35;0.93;;;;;;;27.94;29.04;101875.44;5075618;28;20037;-48
2022/07/16 07:47:02;;;;;;;3.78;1.20;;;;;;;27.79;29.23;101861.22;5076040;28;20032;-52
2022/07/16 07:49:31;;;;;;;3.53;1.10;;;;;;;27.94;29.10;101881.59;5076055;28;20112;-48
2022/07/16 07:52:00;;;;;;;5.07;1.02;;;;;;;27.96;29.51;101876.34;5076140;28;20027;-42
2022/07/16 07:54:27;;;;;;;6.45;1.40;;;;;;;28.00;29.65;101894.84;5075819;28;20103;-43
2022/07/16 07:56:56;;;;;;;3.88;1.10;;;;;;;28.12;29.52;101887.97;5076327;28;20434;-42
2022/07/16 07:59:24;;;;;;;3.33;1.30;;;;;;;28.09;29.54;101893.19;5074511;28;20025;-45
2022/07/16 08:01:53;;;;;;;3.03;1.17;;;;;;;28.08;29.58;101904.59;5075620;28;20037;-44
2022/07/16 08:04:22;;;;;;;3.47;1.05;;;;;;;28.09;29.43;101895.81;5075225;28;20039;-42
2022/07/16 08:06:51;;;;;;;1.77;0.88;;;;;;;28.09;29.38;101899.31;5075412;28;20035;-51
2022/07/16 08:09:19;;;;;;;3.60;1.00;;;;;;;28.06;29.16;101899.28;5075422;28;20060;-53
2022/07/16 08:11:48;;;;;;;3.53;1.15;;;;;;;28.08;29.21;101888.78;5075411;28;20059;-45
2022/07/16 08:14:16;;;;;;;6.78;1.10;;;;;;;28.21;29.38;101893.31;5075639;28;20035;-43
2022/07/16 08:16:45;;;;;;;3.70;1.00;;;;;;;28.11;29.28;101891.47;5075654;28;20027;-53
2022/07/16 08:19:13;;;;;;;5.75;0.95;;;;;;;28.25;29.27;101888.94;5074402;28;20028;-43
2022/07/16 08:21:42;;;;;;;4.63;0.95;;;;;;;28.36;29.13;101892.59;5075227;28;20025;-43
2022/07/16 08:26:57;;;;;;;5.88;1.13;;;;;;;28.43;29.32;101882.97;5072202;28;20386;-47
2022/07/16 08:29:26;;;;;;;3.83;1.27;;;;;;;28.39;29.07;101873.25;5075462;28;20515;-50
2022/07/16 08:31:54;;;;;;;5.05;1.10;;;;;;;28.39;28.87;101862.69;5075212;28;20428;-53
2022/07/16 08:34:23;;;;;;;4.88;1.20;;;;;;;28.44;29.06;101869.78;5057780;28;20029;-47
2022/07/16 08:36:52;;;;;;;6.00;1.45;;;;;;;28.47;29.13;101872.44;5074968;28;20406;-48
2022/07/16 08:39:21;;;;;;;2.63;1.17;;;;;;;28.52;28.90;101869.84;5074983;28;20052;-45
2022/07/16 08:41:50;;;;;;;4.03;1.13;;;;;;;28.48;28.87;101873.31;5075019;28;20104;-46
2022/07/16 08:44:19;;;;;;;4.38;1.40;;;;;;;28.49;28.82;101870.72;5074935;28;20101;-45
2022/07/16 08:46:47;;;;;;;4.07;1.23;;;;;;;28.48;28.95;101862.75;5074915;28;20334;-47
2022/07/16 08:49:17;;;;;;;3.65;1.20;;;;;;;28.56;28.90;101868.09;5075194;28;20025;-52
2022/07/16 08:51:47;;;;;;;3.88;0.98;;;;;;;28.54;28.86;101860.19;5073539;28;20371;-44
2022/07/16 08:54:19;;;;;;;5.03;1.25;;;;;;;28.57;28.98;101880.44;5073695;28;20021;-44
2022/07/16 08:56:48;;;;;;;3.60;1.30;;;;;;;28.62;28.92;101874.34;5073384;28;20055;-43
2022/07/16 08:59:16;;;;;;;7.38;1.13;;;;;;;28.68;28.72;101881.41;5073758;28;20056;-43
2022/07/16 09:01:45;;;;;;;4.50;1.17;;;;;;;28.73;28.91;101881.44;5074369;28;20051;-51
2022/07/16 09:04:14;;;;;;;2.72;0.90;;;;;;;28.82;28.44;101880.66;5074287;28;20108;-52
2022/07/16 09:06:42;;;;;;;4.25;1.33;;;;;;;28.76;28.48;101878.88;5074201;28;20037;-43
2022/07/16 09:09:11;;;;;;;5.45;1.67;;;;;;;28.74;28.55;101878.84;5075126;28;20029;-45
2022/07/16 09:11:40;;;;;;;6.15;1.83;;;;;;;28.83;28.34;101878.00;5074392;28;20039;-52
2022/07/16 09:14:09;;;;;;;3.85;1.10;;;;;;;28.88;28.07;101872.75;5073019;28;20024;-43
2022/07/16 09:16:39;;;;;;;2.95;1.65;;;;;;;28.91;27.95;101867.50;5056807;28;20025;-47
2022/07/16 09:19:12;;;;;;;2.67;1.08;;;;;;;28.83;27.83;101856.88;5072727;28;20055;-43
2022/07/16 09:22:18;;;;;;;4.25;1.20;;;;;;;28.91;27.76;101857.84;5074014;28;20436;-55
2022/07/16 09:24:48;;;;;;;3.63;1.00;;;;;;;28.90;27.55;101852.53;5074020;28;20098;-43
2022/07/16 09:27:26;;;;;;;2.22;1.10;;;;;;;28.85;27.72;101856.91;5072930;28;20459;-53
2022/07/16 09:29:58;;;;;;;2.33;1.00;;;;;;;28.86;27.71;101862.19;5073883;28;20474;-56
2022/07/16 09:32:30;;;;;;;5.90;1.30;;;;;;;28.84;27.96;101852.50;5073000;28;20059;-43
2022/07/16 09:35:13;;;;;;;2.95;1.00;;;;;;;28.84;28.05;101842.81;5056433;28;20111;-43
2022/07/16 09:38:01;;;;;;;3.83;1.38;;;;;;;28.91;27.79;101849.00;5073893;28;20025;-47
2022/07/16 09:40:48;;;;;;;9.95;1.48;;;;;;;28.92;27.80;101846.41;5073775;28;20457;-50
2022/07/16 09:43:18;;;;;;;6.22;1.45;;;;;;;29.07;27.40;101866.72;5073811;28;20021;-54
2022/07/16 09:45:48;;;;;;;3.88;1.20;;;;;;;29.05;27.68;101865.81;5073361;28;20035;-43
2022/07/16 09:48:35;;;;;;;16.95;1.67;;;;;;;29.04;27.75;101857.91;5072659;28;20435;-43
2022/07/16 09:51:29;;;;;;;4.13;1.02;;;;;;;29.00;27.83;101871.97;5073017;28;20031;-43
2022/07/16 09:53:58;;;;;;;3.70;1.27;;;;;;;29.15;27.79;101872.03;5067049;28;20478;-43
2022/07/16 09:56:27;;;;;;;2.13;1.08;;;;;;;29.25;27.62;101883.53;5073284;28;20103;-43
2022/07/16 09:58:58;;;;;;;3.00;1.30;;;;;;;29.32;27.44;101879.16;5073562;28;20390;-43
2022/07/16 10:01:26;;;;;;;4.45;1.15;;;;;;;29.29;26.91;101866.84;5073417;28;20103;-43
2022/07/16 10:03:55;;;;;;;3.83;1.13;;;;;;;29.38;26.93;101893.31;5073420;28;20082;-43
2022/07/16 10:06:24;;;;;;;2.50;0.93;;;;;;;29.44;26.92;101888.94;5072256;28;20097;-51
2022/07/16 10:08:53;;;;;;;4.85;1.23;;;;;;;29.50;26.83;101889.00;5072969;28;20488;-43
2022/07/16 10:11:21;;;;;;;2.80;0.98;;;;;;;29.45;26.68;101885.44;5073458;28;20028;-46
2022/07/16 10:13:50;;;;;;;5.72;0.90;;;;;;;29.52;26.89;101876.66;5073193;28;20485;-48
2022/07/16 10:16:42;;;;;;;3.95;1.05;;;;;;;29.39;27.09;101859.88;5055496;28;20036;-42
2022/07/16 10:19:10;;;;;;;5.82;1.50;;;;;;;29.55;26.68;101874.00;5073326;28;20047;-43
2022/07/16 10:21:39;;;;;;;2.33;1.10;;;;;;;29.54;27.16;101881.06;5072142;28;20025;-43
2022/07/16 10:24:13;;;;;;;4.60;1.73;;;;;;;29.61;26.77;101891.69;5072591;28;20016;-46
2022/07/16 10:26:42;;;;;;;6.47;1.47;;;;;;;29.54;26.65;101886.34;5072470;28;20420;-52
2022/07/16 10:29:10;;;;;;;4.78;1.30;;;;;;;29.60;26.29;101881.97;5071589;28;20035;-43
2022/07/16 10:32:31;;;;;;;7.63;1.35;;;;;;;29.60;26.33;101869.63;5073096;28;20025;-45
2022/07/16 10:34:37;;;;;;;7.93;1.25;;;;;;;29.63;26.22;101864.34;5066437;28;20025;-42
2022/07/16 10:37:12;;;;;;;5.35;1.25;;;;;;;29.68;26.16;101880.22;5055443;28;20025;-43
2022/07/16 10:40:00;;;;;;;6.85;1.30;;;;;;;29.56;26.25;101873.13;5073092;28;20028;-52
2022/07/16 10:42:29;;;;;;;5.63;1.00;;;;;;;29.64;26.62;101882.00;5078152;28;20036;-44
2022/07/16 10:44:57;;;;;;;9.27;1.40;;;;;;;29.68;26.32;101872.28;5070010;28;22393;-43
2022/07/16 10:47:43;;;;;;;4.22;1.30;;;;;;;29.74;26.35;101863.50;5070371;28;20039;-47
2022/07/16 10:50:16;;;;;;;4.30;1.30;;;;;;;29.73;25.66;101877.59;5071933;28;20031;-44
2022/07/16 10:52:47;;;;;;;2.72;0.95;;;;;;;29.80;25.80;101861.75;5052141;28;20097;-43
2022/07/16 10:55:30;;;;;;;4.50;1.40;;;;;;;29.80;25.78;101858.22;5071572;28;20126;-52
2022/07/16 10:57:59;;;;;;;2.22;1.02;;;;;;;29.91;25.87;101877.63;5070988;28;20036;-54
2022/07/16 11:00:27;;;;;;;7.57;1.75;;;;;;;29.94;25.81;101869.72;5069348;28;20036;-44
2022/07/16 11:03:01;;;;;;;3.40;1.00;;;;;;;30.00;25.45;101879.47;5072340;28;20061;-50
2022/07/16 11:05:31;;;;;;;5.50;1.52;;;;;;;30.04;24.96;101888.28;5075748;28;20039;-45
2022/07/16 11:08:10;;;;;;;3.08;1.23;;;;;;;30.04;25.19;101894.47;5071912;28;20705;-43
2022/07/16 11:10:40;;;;;;;3.95;1.10;;;;;;;30.08;24.95;101890.06;5075040;28;20036;-46
2022/07/16 11:13:14;;;;;;;4.00;1.10;;;;;;;30.14;25.11;101892.72;5074320;28;20060;-44
2022/07/16 11:15:42;;;;;;;2.80;1.10;;;;;;;30.11;25.08;101896.25;5073480;28;20120;-45
2022/07/16 11:18:15;;;;;;;15.07;1.80;;;;;;;30.11;24.98;101906.84;5073918;28;20040;-44
2022/07/16 11:20:44;;;;;;;4.45;1.17;;;;;;;30.17;25.13;101903.31;5072607;28;20821;-43
2022/07/16 11:23:13;;;;;;;2.33;1.23;;;;;;;30.17;24.98;101903.31;5071381;28;20035;-51
2022/07/16 11:26:01;;;;;;;3.55;1.13;;;;;;;30.25;25.25;101908.63;5072877;28;20056;-44
2022/07/16 11:28:28;;;;;;;3.53;1.20;;;;;;;30.34;25.53;101916.56;5071572;28;20028;-43
2022/07/16 11:31:08;;;;;;;6.38;1.25;;;;;;;30.28;25.18;101919.22;5072744;28;20405;-44
2022/07/16 11:33:36;;;;;;;5.53;1.17;;;;;;;30.24;25.41;101918.28;5073214;28;20040;-43
2022/07/16 11:36:08;;;;;;;4.90;1.20;;;;;;;30.21;25.62;101923.59;5073560;28;20036;-44
2022/07/16 11:38:36;;;;;;;5.57;1.02;;;;;;;30.23;25.45;101920.97;5072832;28;20059;-44
2022/07/16 11:41:03;;;;;;;6.57;1.38;;;;;;;30.33;25.30;101940.38;5072723;28;20036;-44